sensor_id;sensor_type;location;lat;lon;timestamp;P1;durP1;ratioP1;P2;durP2;ratioP2
75716;SDS011;64333;50.138;14.332;2024-03-02T00:02:01;96.05;;;46.90;;
75716;SDS011;64333;50.138;14.332;2024-03-02T00:04:26;98.88;;;45.88;;
75716;SDS011;64333;50.138;14.332;2024-03-02T00:06:54;92.65;;;45.92;;
75716;SDS011;64333;50.138;14.332;2024-03-02T00:09:20;91.10;;;46.35;;
75716;SDS011;64333;50.138;14.332;2024-03-02T00:11:45;85.63;;;43.65;;
75716;SDS011;64333;50.138;14.332;2024-03-02T00:14:11;84.32;;;43.22;;
75716;SDS011;64333;50.138;14.332;2024-03-02T00:16:37;88.55;;;45.20;;
75716;SDS011;64333;50.138;14.332;2024-03-02T00:19:03;81.50;;;43.90;;
75716;SDS011;64333;50.138;14.332;2024-03-02T00:21:30;84.45;;;44.88;;
75716;SDS011;64333;50.138;14.332;2024-03-02T00:23:56;81.03;;;44.45;;
75716;SDS011;64333;50.138;14.332;2024-03-02T00:26:22;83.53;;;43.38;;
75716;SDS011;64333;50.138;14.332;2024-03-02T00:28:47;80.68;;;41.38;;
75716;SDS011;64333;50.138;14.332;2024-03-02T00:31:15;77.53;;;43.15;;
75716;SDS011;64333;50.138;14.332;2024-03-02T00:33:47;84.68;;;43.65;;
75716;SDS011;64333;50.138;14.332;2024-03-02T00:36:18;82.22;;;41.17;;
75716;SDS011;64333;50.138;14.332;2024-03-02T00:38:50;80.85;;;41.42;;
75716;SDS011;64333;50.138;14.332;2024-03-02T00:46:22;87.70;;;43.80;;
75716;SDS011;64333;50.138;14.332;2024-03-02T00:48:51;87.20;;;45.75;;
75716;SDS011;64333;50.138;14.332;2024-03-02T00:51:19;83.47;;;39.78;;
75716;SDS011;64333;50.138;14.332;2024-03-02T00:53:49;86.82;;;44.47;;
75716;SDS011;64333;50.138;14.332;2024-03-02T00:56:17;84.80;;;43.90;;
75716;SDS011;64333;50.138;14.332;2024-03-02T00:58:43;83.78;;;42.58;;
75716;SDS011;64333;50.138;14.332;2024-03-02T01:01:08;77.97;;;41.95;;
75716;SDS011;64333;50.138;14.332;2024-03-02T01:03:34;84.68;;;42.08;;
75716;SDS011;64333;50.138;14.332;2024-03-02T01:06:02;82.85;;;42.67;;
75716;SDS011;64333;50.138;14.332;2024-03-02T01:08:28;73.03;;;39.42;;
75716;SDS011;64333;50.138;14.332;2024-03-02T01:10:53;77.80;;;38.95;;
75716;SDS011;64333;50.138;14.332;2024-03-02T01:13:19;76.05;;;39.88;;
75716;SDS011;64333;50.138;14.332;2024-03-02T01:15:46;83.07;;;40.42;;
75716;SDS011;64333;50.138;14.332;2024-03-02T01:18:11;72.47;;;39.83;;
75716;SDS011;64333;50.138;14.332;2024-03-02T01:20:36;76.50;;;39.80;;
75716;SDS011;64333;50.138;14.332;2024-03-02T01:23:02;75.20;;;39.08;;
75716;SDS011;64333;50.138;14.332;2024-03-02T01:25:28;73.10;;;38.47;;
75716;SDS011;64333;50.138;14.332;2024-03-02T01:27:53;75.07;;;41.28;;
75716;SDS011;64333;50.138;14.332;2024-03-02T01:30:18;72.57;;;39.25;;
75716;SDS011;64333;50.138;14.332;2024-03-02T01:32:44;81.93;;;41.70;;
75716;SDS011;64333;50.138;14.332;2024-03-02T01:35:09;73.72;;;40.92;;
75716;SDS011;64333;50.138;14.332;2024-03-02T01:37:34;78.85;;;39.75;;
75716;SDS011;64333;50.138;14.332;2024-03-02T01:40:00;79.38;;;41.70;;
75716;SDS011;64333;50.138;14.332;2024-03-02T01:42:25;84.10;;;40.63;;
75716;SDS011;64333;50.138;14.332;2024-03-02T01:44:51;79.25;;;40.78;;
75716;SDS011;64333;50.138;14.332;2024-03-02T01:47:16;83.25;;;43.22;;
75716;SDS011;64333;50.138;14.332;2024-03-02T01:49:41;81.55;;;42.72;;
75716;SDS011;64333;50.138;14.332;2024-03-02T01:52:07;85.53;;;42.13;;
75716;SDS011;64333;50.138;14.332;2024-03-02T01:54:33;88.65;;;44.42;;
75716;SDS011;64333;50.138;14.332;2024-03-02T01:56:58;91.18;;;44.58;;
75716;SDS011;64333;50.138;14.332;2024-03-02T01:59:24;77.10;;;41.03;;
75716;SDS011;64333;50.138;14.332;2024-03-02T02:01:50;82.07;;;41.42;;
75716;SDS011;64333;50.138;14.332;2024-03-02T02:04:15;81.65;;;42.88;;
75716;SDS011;64333;50.138;14.332;2024-03-02T02:06:40;76.03;;;38.30;;
75716;SDS011;64333;50.138;14.332;2024-03-02T02:09:06;81.55;;;42.42;;
75716;SDS011;64333;50.138;14.332;2024-03-02T02:11:33;69.15;;;37.13;;
75716;SDS011;64333;50.138;14.332;2024-03-02T02:13:59;71.57;;;38.53;;
75716;SDS011;64333;50.138;14.332;2024-03-02T02:16:24;80.78;;;39.15;;
75716;SDS011;64333;50.138;14.332;2024-03-02T02:18:49;82.50;;;39.45;;
75716;SDS011;64333;50.138;14.332;2024-03-02T02:21:15;79.63;;;38.70;;
75716;SDS011;64333;50.138;14.332;2024-03-02T02:23:40;76.57;;;37.28;;
75716;SDS011;64333;50.138;14.332;2024-03-02T02:26:11;75.40;;;37.13;;
75716;SDS011;64333;50.138;14.332;2024-03-02T02:28:36;69.38;;;36.83;;
75716;SDS011;64333;50.138;14.332;2024-03-02T02:31:02;68.97;;;35.95;;
75716;SDS011;64333;50.138;14.332;2024-03-02T02:33:27;70.85;;;36.10;;
75716;SDS011;64333;50.138;14.332;2024-03-02T02:35:53;75.07;;;37.05;;
75716;SDS011;64333;50.138;14.332;2024-03-02T02:38:19;74.55;;;37.85;;
75716;SDS011;64333;50.138;14.332;2024-03-02T02:40:45;73.47;;;38.75;;
75716;SDS011;64333;50.138;14.332;2024-03-02T02:43:10;74.07;;;37.10;;
75716;SDS011;64333;50.138;14.332;2024-03-02T02:45:36;79.93;;;39.33;;
75716;SDS011;64333;50.138;14.332;2024-03-02T02:48:01;74.22;;;35.95;;
75716;SDS011;64333;50.138;14.332;2024-03-02T02:50:27;77.53;;;36.95;;
75716;SDS011;64333;50.138;14.332;2024-03-02T02:52:53;76.70;;;37.05;;
75716;SDS011;64333;50.138;14.332;2024-03-02T02:55:18;71.97;;;36.65;;
75716;SDS011;64333;50.138;14.332;2024-03-02T02:57:44;74.35;;;35.40;;
75716;SDS011;64333;50.138;14.332;2024-03-02T03:02:42;70.32;;;34.63;;
75716;SDS011;64333;50.138;14.332;2024-03-02T03:05:09;69.82;;;34.92;;
75716;SDS011;64333;50.138;14.332;2024-03-02T03:07:36;73.63;;;38.78;;
75716;SDS011;64333;50.138;14.332;2024-03-02T03:10:03;85.30;;;40.17;;
75716;SDS011;64333;50.138;14.332;2024-03-02T03:12:29;87.57;;;40.45;;
75716;SDS011;64333;50.138;14.332;2024-03-02T03:14:56;97.25;;;43.30;;
75716;SDS011;64333;50.138;14.332;2024-03-02T03:17:22;100.32;;;42.95;;
75716;SDS011;64333;50.138;14.332;2024-03-02T03:19:48;102.25;;;43.25;;
75716;SDS011;64333;50.138;14.332;2024-03-02T03:22:13;99.80;;;42.92;;
75716;SDS011;64333;50.138;14.332;2024-03-02T03:24:39;98.65;;;41.05;;
75716;SDS011;64333;50.138;14.332;2024-03-02T03:27:04;97.88;;;40.38;;
75716;SDS011;64333;50.138;14.332;2024-03-02T03:29:29;99.85;;;42.85;;
75716;SDS011;64333;50.138;14.332;2024-03-02T03:31:55;96.50;;;40.30;;
75716;SDS011;64333;50.138;14.332;2024-03-02T03:34:20;101.65;;;42.13;;
75716;SDS011;64333;50.138;14.332;2024-03-02T03:36:45;98.13;;;40.28;;
75716;SDS011;64333;50.138;14.332;2024-03-02T03:39:10;101.78;;;39.85;;
75716;SDS011;64333;50.138;14.332;2024-03-02T03:41:36;94.80;;;38.75;;
75716;SDS011;64333;50.138;14.332;2024-03-02T03:44:01;101.95;;;39.25;;
75716;SDS011;64333;50.138;14.332;2024-03-02T03:46:26;87.80;;;36.80;;
75716;SDS011;64333;50.138;14.332;2024-03-02T03:48:52;96.35;;;40.05;;
75716;SDS011;64333;50.138;14.332;2024-03-02T03:51:17;91.43;;;37.15;;
75716;SDS011;64333;50.138;14.332;2024-03-02T03:53:42;94.55;;;37.25;;
75716;SDS011;64333;50.138;14.332;2024-03-02T03:56:08;93.85;;;37.28;;
75716;SDS011;64333;50.138;14.332;2024-03-02T03:58:33;87.07;;;37.47;;
75716;SDS011;64333;50.138;14.332;2024-03-02T04:00:58;90.60;;;36.97;;
75716;SDS011;64333;50.138;14.332;2024-03-02T04:03:24;86.60;;;37.92;;
75716;SDS011;64333;50.138;14.332;2024-03-02T04:05:50;86.22;;;36.95;;
75716;SDS011;64333;50.138;14.332;2024-03-02T04:08:15;88.78;;;35.83;;
75716;SDS011;64333;50.138;14.332;2024-03-02T04:10:41;81.82;;;36.00;;
75716;SDS011;64333;50.138;14.332;2024-03-02T04:13:07;80.40;;;33.67;;
75716;SDS011;64333;50.138;14.332;2024-03-02T04:15:32;85.07;;;36.10;;
75716;SDS011;64333;50.138;14.332;2024-03-02T04:17:57;79.57;;;36.33;;
75716;SDS011;64333;50.138;14.332;2024-03-02T04:20:23;74.55;;;32.90;;
75716;SDS011;64333;50.138;14.332;2024-03-02T04:22:48;74.88;;;34.75;;
75716;SDS011;64333;50.138;14.332;2024-03-02T04:25:13;78.75;;;34.83;;
75716;SDS011;64333;50.138;14.332;2024-03-02T04:27:39;69.75;;;30.67;;
75716;SDS011;64333;50.138;14.332;2024-03-02T04:30:04;67.72;;;32.53;;
75716;SDS011;64333;50.138;14.332;2024-03-02T04:32:30;71.00;;;32.53;;
75716;SDS011;64333;50.138;14.332;2024-03-02T04:34:56;66.40;;;32.30;;
75716;SDS011;64333;50.138;14.332;2024-03-02T04:37:22;63.78;;;30.08;;
75716;SDS011;64333;50.138;14.332;2024-03-02T04:39:47;63.33;;;29.10;;
75716;SDS011;64333;50.138;14.332;2024-03-02T04:42:12;57.67;;;28.88;;
75716;SDS011;64333;50.138;14.332;2024-03-02T04:44:38;59.47;;;29.15;;
75716;SDS011;64333;50.138;14.332;2024-03-02T04:47:03;60.90;;;29.73;;
75716;SDS011;64333;50.138;14.332;2024-03-02T04:49:29;63.53;;;29.27;;
75716;SDS011;64333;50.138;14.332;2024-03-02T04:51:55;59.47;;;30.40;;
75716;SDS011;64333;50.138;14.332;2024-03-02T04:54:21;57.30;;;30.73;;
75716;SDS011;64333;50.138;14.332;2024-03-02T04:56:47;56.65;;;29.83;;
75716;SDS011;64333;50.138;14.332;2024-03-02T04:59:15;57.03;;;28.67;;
75716;SDS011;64333;50.138;14.332;2024-03-02T05:01:44;58.30;;;28.92;;
75716;SDS011;64333;50.138;14.332;2024-03-02T05:04:10;52.22;;;27.15;;
75716;SDS011;64333;50.138;14.332;2024-03-02T05:06:39;54.38;;;26.63;;
75716;SDS011;64333;50.138;14.332;2024-03-02T05:09:08;52.63;;;27.08;;
75716;SDS011;64333;50.138;14.332;2024-03-02T05:11:34;47.67;;;24.85;;
75716;SDS011;64333;50.138;14.332;2024-03-02T05:14:02;52.05;;;25.65;;
75716;SDS011;64333;50.138;14.332;2024-03-02T05:16:28;41.00;;;23.75;;
75716;SDS011;64333;50.138;14.332;2024-03-02T05:18:54;46.25;;;23.83;;
75716;SDS011;64333;50.138;14.332;2024-03-02T05:21:20;48.42;;;23.42;;
75716;SDS011;64333;50.138;14.332;2024-03-02T05:23:46;47.40;;;22.88;;
75716;SDS011;64333;50.138;14.332;2024-03-02T05:26:11;45.05;;;23.10;;
75716;SDS011;64333;50.138;14.332;2024-03-02T05:28:39;49.17;;;24.05;;
75716;SDS011;64333;50.138;14.332;2024-03-02T05:31:05;43.30;;;22.80;;
75716;SDS011;64333;50.138;14.332;2024-03-02T05:33:30;41.25;;;22.80;;
75716;SDS011;64333;50.138;14.332;2024-03-02T05:35:56;45.03;;;22.00;;
75716;SDS011;64333;50.138;14.332;2024-03-02T05:38:22;43.05;;;21.60;;
75716;SDS011;64333;50.138;14.332;2024-03-02T05:40:47;39.95;;;23.63;;
75716;SDS011;64333;50.138;14.332;2024-03-02T05:43:13;38.53;;;19.88;;
75716;SDS011;64333;50.138;14.332;2024-03-02T05:45:38;37.05;;;20.70;;
75716;SDS011;64333;50.138;14.332;2024-03-02T05:48:04;41.83;;;21.27;;
75716;SDS011;64333;50.138;14.332;2024-03-02T05:50:34;35.47;;;19.20;;
75716;SDS011;64333;50.138;14.332;2024-03-02T05:52:59;37.25;;;19.95;;
75716;SDS011;64333;50.138;14.332;2024-03-02T05:55:25;39.30;;;20.05;;
75716;SDS011;64333;50.138;14.332;2024-03-02T05:57:50;40.63;;;21.60;;
75716;SDS011;64333;50.138;14.332;2024-03-02T06:00:30;36.13;;;19.42;;
75716;SDS011;64333;50.138;14.332;2024-03-02T06:02:56;39.05;;;20.48;;
75716;SDS011;64333;50.138;14.332;2024-03-02T06:05:21;41.33;;;20.70;;
75716;SDS011;64333;50.138;14.332;2024-03-02T06:07:46;39.42;;;21.23;;
75716;SDS011;64333;50.138;14.332;2024-03-02T06:10:12;37.63;;;20.23;;
75716;SDS011;64333;50.138;14.332;2024-03-02T06:12:37;37.65;;;20.63;;
75716;SDS011;64333;50.138;14.332;2024-03-02T06:15:02;38.35;;;20.52;;
75716;SDS011;64333;50.138;14.332;2024-03-02T06:17:29;37.22;;;19.83;;
75716;SDS011;64333;50.138;14.332;2024-03-02T06:19:54;35.28;;;19.40;;
75716;SDS011;64333;50.138;14.332;2024-03-02T06:22:19;36.30;;;19.30;;
75716;SDS011;64333;50.138;14.332;2024-03-02T06:24:44;38.25;;;20.00;;
75716;SDS011;64333;50.138;14.332;2024-03-02T06:27:10;39.20;;;21.52;;
75716;SDS011;64333;50.138;14.332;2024-03-02T06:29:35;39.35;;;20.25;;
75716;SDS011;64333;50.138;14.332;2024-03-02T06:32:00;40.15;;;21.00;;
75716;SDS011;64333;50.138;14.332;2024-03-02T06:34:26;39.58;;;19.27;;
75716;SDS011;64333;50.138;14.332;2024-03-02T06:36:51;37.92;;;18.55;;
75716;SDS011;64333;50.138;14.332;2024-03-02T06:39:17;33.42;;;18.30;;
75716;SDS011;64333;50.138;14.332;2024-03-02T06:41:42;33.92;;;18.83;;
75716;SDS011;64333;50.138;14.332;2024-03-02T06:44:12;31.70;;;18.10;;
75716;SDS011;64333;50.138;14.332;2024-03-02T06:46:37;35.15;;;17.63;;
75716;SDS011;64333;50.138;14.332;2024-03-02T06:49:03;34.83;;;18.30;;
75716;SDS011;64333;50.138;14.332;2024-03-02T06:51:33;30.80;;;16.55;;
75716;SDS011;64333;50.138;14.332;2024-03-02T06:53:59;36.40;;;19.95;;
75716;SDS011;64333;50.138;14.332;2024-03-02T06:56:24;31.38;;;17.58;;
75716;SDS011;64333;50.138;14.332;2024-03-02T06:58:49;31.48;;;18.20;;
75716;SDS011;64333;50.138;14.332;2024-03-02T07:01:15;35.67;;;17.73;;
75716;SDS011;64333;50.138;14.332;2024-03-02T07:03:40;35.05;;;18.75;;
75716;SDS011;64333;50.138;14.332;2024-03-02T07:06:06;36.53;;;18.17;;
75716;SDS011;64333;50.138;14.332;2024-03-02T07:08:31;31.95;;;17.35;;
75716;SDS011;64333;50.138;14.332;2024-03-02T07:10:56;35.10;;;17.98;;
75716;SDS011;64333;50.138;14.332;2024-03-02T07:13:22;36.95;;;18.13;;
75716;SDS011;64333;50.138;14.332;2024-03-02T07:15:48;35.00;;;17.58;;
75716;SDS011;64333;50.138;14.332;2024-03-02T07:18:29;37.22;;;19.13;;
75716;SDS011;64333;50.138;14.332;2024-03-02T07:20:55;35.65;;;18.92;;
75716;SDS011;64333;50.138;14.332;2024-03-02T07:23:23;32.45;;;17.35;;
75716;SDS011;64333;50.138;14.332;2024-03-02T07:25:52;34.30;;;18.08;;
75716;SDS011;64333;50.138;14.332;2024-03-02T07:28:21;37.25;;;20.35;;
75716;SDS011;64333;50.138;14.332;2024-03-02T07:31:02;36.75;;;20.33;;
75716;SDS011;64333;50.138;14.332;2024-03-02T07:33:32;35.72;;;19.00;;
75716;SDS011;64333;50.138;14.332;2024-03-02T07:35:57;34.95;;;20.05;;
75716;SDS011;64333;50.138;14.332;2024-03-02T07:38:27;32.95;;;19.02;;
75716;SDS011;64333;50.138;14.332;2024-03-02T07:40:54;36.45;;;19.00;;
75716;SDS011;64333;50.138;14.332;2024-03-02T07:43:20;35.03;;;18.58;;
75716;SDS011;64333;50.138;14.332;2024-03-02T07:45:46;34.90;;;18.45;;
75716;SDS011;64333;50.138;14.332;2024-03-02T07:48:12;32.20;;;17.10;;
75716;SDS011;64333;50.138;14.332;2024-03-02T07:50:37;33.95;;;18.20;;
75716;SDS011;64333;50.138;14.332;2024-03-02T07:53:04;32.65;;;17.77;;
75716;SDS011;64333;50.138;14.332;2024-03-02T07:55:30;32.00;;;17.08;;
75716;SDS011;64333;50.138;14.332;2024-03-02T07:57:59;31.33;;;16.67;;
75716;SDS011;64333;50.138;14.332;2024-03-02T08:00:25;33.72;;;16.80;;
75716;SDS011;64333;50.138;14.332;2024-03-02T08:02:51;30.08;;;17.20;;
75716;SDS011;64333;50.138;14.332;2024-03-02T08:05:17;31.38;;;16.65;;
75716;SDS011;64333;50.138;14.332;2024-03-02T08:07:44;33.83;;;18.83;;
75716;SDS011;64333;50.138;14.332;2024-03-02T08:10:10;33.40;;;16.65;;
75716;SDS011;64333;50.138;14.332;2024-03-02T08:12:35;33.45;;;18.63;;
75716;SDS011;64333;50.138;14.332;2024-03-02T08:15:01;32.22;;;16.83;;
75716;SDS011;64333;50.138;14.332;2024-03-02T08:17:26;35.80;;;19.33;;
75716;SDS011;64333;50.138;14.332;2024-03-02T08:19:54;28.60;;;16.55;;
75716;SDS011;64333;50.138;14.332;2024-03-02T08:22:20;34.28;;;21.95;;
75716;SDS011;64333;50.138;14.332;2024-03-02T08:24:45;35.67;;;19.58;;
75716;SDS011;64333;50.138;14.332;2024-03-02T08:27:11;34.67;;;19.15;;
75716;SDS011;64333;50.138;14.332;2024-03-02T08:29:37;33.60;;;18.65;;
75716;SDS011;64333;50.138;14.332;2024-03-02T08:32:02;30.40;;;17.58;;
75716;SDS011;64333;50.138;14.332;2024-03-02T08:34:28;29.80;;;17.48;;
75716;SDS011;64333;50.138;14.332;2024-03-02T08:36:54;28.58;;;17.63;;
75716;SDS011;64333;50.138;14.332;2024-03-02T08:39:19;28.85;;;17.35;;
75716;SDS011;64333;50.138;14.332;2024-03-02T08:41:45;27.35;;;15.52;;
75716;SDS011;64333;50.138;14.332;2024-03-02T08:44:11;28.27;;;16.38;;
75716;SDS011;64333;50.138;14.332;2024-03-02T08:46:38;27.13;;;15.52;;
75716;SDS011;64333;50.138;14.332;2024-03-02T08:49:04;27.30;;;15.52;;
75716;SDS011;64333;50.138;14.332;2024-03-02T08:51:29;31.52;;;16.13;;
75716;SDS011;64333;50.138;14.332;2024-03-02T08:53:55;28.58;;;16.23;;
75716;SDS011;64333;50.138;14.332;2024-03-02T08:56:21;28.95;;;15.23;;
75716;SDS011;64333;50.138;14.332;2024-03-02T08:58:48;29.42;;;17.77;;
75716;SDS011;64333;50.138;14.332;2024-03-02T09:01:14;26.45;;;14.63;;
75716;SDS011;64333;50.138;14.332;2024-03-02T09:03:39;26.95;;;14.75;;
75716;SDS011;64333;50.138;14.332;2024-03-02T09:06:05;26.52;;;14.45;;
75716;SDS011;64333;50.138;14.332;2024-03-02T09:08:30;25.98;;;14.93;;
75716;SDS011;64333;50.138;14.332;2024-03-02T09:10:56;24.63;;;14.57;;
75716;SDS011;64333;50.138;14.332;2024-03-02T09:13:21;26.35;;;12.95;;
75716;SDS011;64333;50.138;14.332;2024-03-02T09:15:47;28.75;;;15.98;;
75716;SDS011;64333;50.138;14.332;2024-03-02T09:18:13;29.42;;;14.68;;
75716;SDS011;64333;50.138;14.332;2024-03-02T09:20:38;24.60;;;13.85;;
75716;SDS011;64333;50.138;14.332;2024-03-02T09:23:04;26.95;;;14.50;;
75716;SDS011;64333;50.138;14.332;2024-03-02T09:25:29;26.48;;;15.18;;
75716;SDS011;64333;50.138;14.332;2024-03-02T09:27:54;25.95;;;14.38;;
75716;SDS011;64333;50.138;14.332;2024-03-02T09:30:20;24.20;;;14.82;;
75716;SDS011;64333;50.138;14.332;2024-03-02T09:32:45;24.13;;;13.45;;
75716;SDS011;64333;50.138;14.332;2024-03-02T09:35:10;24.80;;;14.40;;
75716;SDS011;64333;50.138;14.332;2024-03-02T09:37:37;25.85;;;13.77;;
75716;SDS011;64333;50.138;14.332;2024-03-02T09:40:02;25.00;;;13.70;;
75716;SDS011;64333;50.138;14.332;2024-03-02T09:42:28;22.13;;;11.32;;
75716;SDS011;64333;50.138;14.332;2024-03-02T09:44:54;24.20;;;12.05;;
75716;SDS011;64333;50.138;14.332;2024-03-02T09:47:20;25.80;;;12.98;;
75716;SDS011;64333;50.138;14.332;2024-03-02T09:49:46;19.77;;;11.32;;
75716;SDS011;64333;50.138;14.332;2024-03-02T09:52:11;23.05;;;12.52;;
75716;SDS011;64333;50.138;14.332;2024-03-02T09:54:39;20.52;;;11.95;;
75716;SDS011;64333;50.138;14.332;2024-03-02T09:57:05;20.98;;;11.50;;
75716;SDS011;64333;50.138;14.332;2024-03-02T09:59:30;18.17;;;11.50;;
75716;SDS011;64333;50.138;14.332;2024-03-02T10:01:56;21.95;;;12.82;;
75716;SDS011;64333;50.138;14.332;2024-03-02T10:04:24;23.95;;;12.50;;
75716;SDS011;64333;50.138;14.332;2024-03-02T10:06:50;23.33;;;12.00;;
75716;SDS011;64333;50.138;14.332;2024-03-02T10:09:26;22.15;;;11.85;;
75716;SDS011;64333;50.138;14.332;2024-03-02T10:11:54;18.98;;;11.20;;
75716;SDS011;64333;50.138;14.332;2024-03-02T10:14:29;21.83;;;12.00;;
75716;SDS011;64333;50.138;14.332;2024-03-02T10:17:04;18.67;;;11.43;;
75716;SDS011;64333;50.138;14.332;2024-03-02T10:19:34;20.15;;;11.35;;
75716;SDS011;64333;50.138;14.332;2024-03-02T10:22:03;23.50;;;13.95;;
75716;SDS011;64333;50.138;14.332;2024-03-02T10:24:40;23.60;;;11.38;;
75716;SDS011;64333;50.138;14.332;2024-03-02T10:27:16;21.90;;;11.02;;
75716;SDS011;64333;50.138;14.332;2024-03-02T10:29:46;23.05;;;12.38;;
75716;SDS011;64333;50.138;14.332;2024-03-02T10:32:12;22.02;;;12.73;;
75716;SDS011;64333;50.138;14.332;2024-03-02T10:34:39;23.20;;;13.50;;
75716;SDS011;64333;50.138;14.332;2024-03-02T10:37:06;19.02;;;11.50;;
75716;SDS011;64333;50.138;14.332;2024-03-02T10:39:35;19.85;;;11.57;;
75716;SDS011;64333;50.138;14.332;2024-03-02T10:42:01;18.80;;;11.70;;
75716;SDS011;64333;50.138;14.332;2024-03-02T10:44:28;24.27;;;13.13;;
75716;SDS011;64333;50.138;14.332;2024-03-02T10:46:55;19.00;;;12.23;;
75716;SDS011;64333;50.138;14.332;2024-03-02T10:49:21;21.52;;;12.27;;
75716;SDS011;64333;50.138;14.332;2024-03-02T10:51:49;21.52;;;12.32;;
75716;SDS011;64333;50.138;14.332;2024-03-02T10:54:14;18.63;;;11.85;;
75716;SDS011;64333;50.138;14.332;2024-03-02T10:56:40;17.83;;;11.05;;
75716;SDS011;64333;50.138;14.332;2024-03-02T11:01:43;20.90;;;11.50;;
75716;SDS011;64333;50.138;14.332;2024-03-02T11:04:12;18.77;;;11.05;;
75716;SDS011;64333;50.138;14.332;2024-03-02T11:06:39;19.20;;;10.80;;
75716;SDS011;64333;50.138;14.332;2024-03-02T11:09:12;16.73;;;10.98;;
75716;SDS011;64333;50.138;14.332;2024-03-02T11:11:40;18.85;;;10.80;;
75716;SDS011;64333;50.138;14.332;2024-03-02T11:14:10;20.02;;;11.88;;
75716;SDS011;64333;50.138;14.332;2024-03-02T11:16:38;17.38;;;11.25;;
75716;SDS011;64333;50.138;14.332;2024-03-02T11:19:06;19.55;;;11.57;;
75716;SDS011;64333;50.138;14.332;2024-03-02T11:21:34;20.67;;;12.15;;
75716;SDS011;64333;50.138;14.332;2024-03-02T11:24:00;17.67;;;11.25;;
75716;SDS011;64333;50.138;14.332;2024-03-02T11:26:46;19.40;;;12.30;;
75716;SDS011;64333;50.138;14.332;2024-03-02T11:29:33;18.20;;;11.50;;
75716;SDS011;64333;50.138;14.332;2024-03-02T11:32:04;17.77;;;10.75;;
75716;SDS011;64333;50.138;14.332;2024-03-02T11:34:31;18.17;;;12.02;;
75716;SDS011;64333;50.138;14.332;2024-03-02T11:37:00;20.80;;;13.43;;
75716;SDS011;64333;50.138;14.332;2024-03-02T11:39:27;17.95;;;11.73;;
75716;SDS011;64333;50.138;14.332;2024-03-02T11:41:53;19.20;;;11.48;;
75716;SDS011;64333;50.138;14.332;2024-03-02T11:44:22;17.30;;;11.68;;
75716;SDS011;64333;50.138;14.332;2024-03-02T11:46:53;17.63;;;11.95;;
75716;SDS011;64333;50.138;14.332;2024-03-02T11:49:36;16.42;;;11.20;;
75716;SDS011;64333;50.138;14.332;2024-03-02T11:52:05;18.25;;;11.48;;
75716;SDS011;64333;50.138;14.332;2024-03-02T11:54:32;14.85;;;10.73;;
75716;SDS011;64333;50.138;14.332;2024-03-02T11:57:03;18.20;;;11.25;;
75716;SDS011;64333;50.138;14.332;2024-03-02T11:59:29;24.67;;;14.55;;
75716;SDS011;64333;50.138;14.332;2024-03-02T12:01:58;21.75;;;12.63;;
75716;SDS011;64333;50.138;14.332;2024-03-02T12:04:24;17.55;;;12.13;;
75716;SDS011;64333;50.138;14.332;2024-03-02T12:07:08;21.30;;;12.77;;
75716;SDS011;64333;50.138;14.332;2024-03-02T12:09:34;18.17;;;12.45;;
75716;SDS011;64333;50.138;14.332;2024-03-02T12:12:09;22.65;;;12.70;;
75716;SDS011;64333;50.138;14.332;2024-03-02T12:14:36;17.38;;;12.23;;
75716;SDS011;64333;50.138;14.332;2024-03-02T12:17:02;19.90;;;12.65;;
75716;SDS011;64333;50.138;14.332;2024-03-02T12:19:29;20.17;;;10.80;;
75716;SDS011;64333;50.138;14.332;2024-03-02T12:21:55;18.35;;;12.02;;
75716;SDS011;64333;50.138;14.332;2024-03-02T12:24:21;18.92;;;12.23;;
75716;SDS011;64333;50.138;14.332;2024-03-02T12:26:48;16.10;;;11.60;;
75716;SDS011;64333;50.138;14.332;2024-03-02T12:29:14;21.77;;;12.10;;
75716;SDS011;64333;50.138;14.332;2024-03-02T12:31:40;17.42;;;11.73;;
75716;SDS011;64333;50.138;14.332;2024-03-02T12:34:07;19.60;;;11.68;;
75716;SDS011;64333;50.138;14.332;2024-03-02T12:36:39;20.63;;;12.18;;
75716;SDS011;64333;50.138;14.332;2024-03-02T12:39:06;20.75;;;12.02;;
75716;SDS011;64333;50.138;14.332;2024-03-02T12:41:35;18.15;;;11.68;;
75716;SDS011;64333;50.138;14.332;2024-03-02T12:44:01;20.20;;;13.50;;
75716;SDS011;64333;50.138;14.332;2024-03-02T12:46:27;19.75;;;11.88;;
75716;SDS011;64333;50.138;14.332;2024-03-02T12:48:52;21.85;;;12.90;;
75716;SDS011;64333;50.138;14.332;2024-03-02T12:51:18;21.13;;;12.32;;
75716;SDS011;64333;50.138;14.332;2024-03-02T12:53:43;18.25;;;12.05;;
75716;SDS011;64333;50.138;14.332;2024-03-02T12:56:09;23.23;;;12.43;;
75716;SDS011;64333;50.138;14.332;2024-03-02T12:58:41;22.92;;;15.07;;
75716;SDS011;64333;50.138;14.332;2024-03-02T13:01:09;28.67;;;15.77;;
75716;SDS011;64333;50.138;14.332;2024-03-02T13:03:36;15.73;;;10.60;;
75716;SDS011;64333;50.138;14.332;2024-03-02T13:06:03;17.33;;;11.68;;
75716;SDS011;64333;50.138;14.332;2024-03-02T13:08:29;18.90;;;10.95;;
75716;SDS011;64333;50.138;14.332;2024-03-02T13:10:55;17.17;;;11.32;;
75716;SDS011;64333;50.138;14.332;2024-03-02T13:13:20;18.48;;;10.80;;
75716;SDS011;64333;50.138;14.332;2024-03-02T13:15:46;17.77;;;10.73;;
75716;SDS011;64333;50.138;14.332;2024-03-02T13:18:11;17.45;;;10.70;;
75716;SDS011;64333;50.138;14.332;2024-03-02T13:20:36;14.90;;;9.85;;
75716;SDS011;64333;50.138;14.332;2024-03-02T13:23:03;16.73;;;10.75;;
75716;SDS011;64333;50.138;14.332;2024-03-02T13:25:29;18.38;;;11.15;;
75716;SDS011;64333;50.138;14.332;2024-03-02T13:27:56;19.45;;;12.93;;
75716;SDS011;64333;50.138;14.332;2024-03-02T13:30:22;18.42;;;10.90;;
75716;SDS011;64333;50.138;14.332;2024-03-02T13:32:47;17.17;;;10.23;;
75716;SDS011;64333;50.138;14.332;2024-03-02T13:35:12;18.08;;;10.45;;
75716;SDS011;64333;50.138;14.332;2024-03-02T13:37:38;18.88;;;11.20;;
75716;SDS011;64333;50.138;14.332;2024-03-02T13:40:03;18.95;;;11.38;;
75716;SDS011;64333;50.138;14.332;2024-03-02T13:42:30;19.08;;;11.85;;
75716;SDS011;64333;50.138;14.332;2024-03-02T13:44:55;17.73;;;10.27;;
75716;SDS011;64333;50.138;14.332;2024-03-02T13:47:21;18.40;;;10.85;;
75716;SDS011;64333;50.138;14.332;2024-03-02T13:49:53;17.25;;;11.60;;
75716;SDS011;64333;50.138;14.332;2024-03-02T13:52:18;17.85;;;10.85;;
75716;SDS011;64333;50.138;14.332;2024-03-02T13:54:44;16.85;;;10.57;;
75716;SDS011;64333;50.138;14.332;2024-03-02T13:57:10;16.38;;;10.77;;
75716;SDS011;64333;50.138;14.332;2024-03-02T13:59:36;17.52;;;10.85;;
75716;SDS011;64333;50.138;14.332;2024-03-02T14:02:02;17.42;;;12.13;;
75716;SDS011;64333;50.138;14.332;2024-03-02T14:04:31;20.33;;;12.05;;
75716;SDS011;64333;50.138;14.332;2024-03-02T14:06:58;17.95;;;12.77;;
75716;SDS011;64333;50.138;14.332;2024-03-02T14:09:24;16.30;;;11.48;;
75716;SDS011;64333;50.138;14.332;2024-03-02T14:11:50;19.95;;;12.73;;
75716;SDS011;64333;50.138;14.332;2024-03-02T14:14:16;22.30;;;12.23;;
75716;SDS011;64333;50.138;14.332;2024-03-02T14:16:42;19.10;;;11.98;;